sensor_id;sensor_type;location;lat;lon;timestamp;P1;durP1;ratioP1;P2;durP2;ratioP2
7211;SDS011;3647;48.792;9.802;2022-12-07T05:38:11;19.00;;;12.07;;
7211;SDS011;3647;48.792;9.802;2022-12-07T05:40:38;19.87;;;12.40;;
7211;SDS011;3647;48.792;9.802;2022-12-07T05:43:05;24.80;;;15.20;;
7211;SDS011;3647;48.792;9.802;2022-12-07T05:45:32;24.80;;;16.13;;
7211;SDS011;3647;48.792;9.802;2022-12-07T05:47:59;21.23;;;13.30;;
7211;SDS011;3647;48.792;9.802;2022-12-07T05:50:25;21.07;;;12.93;;
7211;SDS011;3647;48.792;9.802;2022-12-07T05:52:52;21.03;;;12.70;;
7211;SDS011;3647;48.792;9.802;2022-12-07T05:55:20;20.97;;;13.07;;
7211;SDS011;3647;48.792;9.802;2022-12-07T05:57:47;23.00;;;13.07;;
7211;SDS011;3647;48.792;9.802;2022-12-07T06:00:28;20.53;;;12.97;;
7211;SDS011;3647;48.792;9.802;2022-12-07T06:02:55;20.07;;;11.43;;
7211;SDS011;3647;48.792;9.802;2022-12-07T06:05:21;22.47;;;13.23;;
7211;SDS011;3647;48.792;9.802;2022-12-07T06:07:48;20.50;;;12.63;;
7211;SDS011;3647;48.792;9.802;2022-12-07T06:10:15;20.30;;;13.00;;
7211;SDS011;3647;48.792;9.802;2022-12-07T06:12:43;18.80;;;12.57;;
7211;SDS011;3647;48.792;9.802;2022-12-07T06:15:11;20.23;;;13.17;;
7211;SDS011;3647;48.792;9.802;2022-12-07T06:17:38;17.73;;;12.13;;
7211;SDS011;3647;48.792;9.802;2022-12-07T06:20:05;19.70;;;12.87;;
7211;SDS011;3647;48.792;9.802;2022-12-07T06:22:33;19.03;;;12.30;;
7211;SDS011;3647;48.792;9.802;2022-12-07T06:25:00;22.67;;;13.63;;
7211;SDS011;3647;48.792;9.802;2022-12-07T06:27:28;21.43;;;12.47;;
7211;SDS011;3647;48.792;9.802;2022-12-07T06:29:57;21.10;;;12.80;;
7211;SDS011;3647;48.792;9.802;2022-12-07T06:32:24;20.77;;;12.30;;
7211;SDS011;3647;48.792;9.802;2022-12-07T06:34:51;18.90;;;12.37;;
7211;SDS011;3647;48.792;9.802;2022-12-07T06:37:18;19.33;;;12.03;;
7211;SDS011;3647;48.792;9.802;2022-12-07T06:39:45;19.50;;;11.40;;
7211;SDS011;3647;48.792;9.802;2022-12-07T06:42:12;17.70;;;11.80;;
7211;SDS011;3647;48.792;9.802;2022-12-07T06:44:38;18.30;;;11.67;;
7211;SDS011;3647;48.792;9.802;2022-12-07T06:47:06;22.43;;;11.83;;
7211;SDS011;3647;48.792;9.802;2022-12-07T06:49:34;19.13;;;11.90;;
7211;SDS011;3647;48.792;9.802;2022-12-07T06:52:01;17.87;;;12.30;;
7211;SDS011;3647;48.792;9.802;2022-12-07T06:54:29;18.93;;;12.83;;
7211;SDS011;3647;48.792;9.802;2022-12-07T06:56:56;18.00;;;11.60;;
7211;SDS011;3647;48.792;9.802;2022-12-07T06:59:23;20.70;;;11.87;;
7211;SDS011;3647;48.792;9.802;2022-12-07T07:01:50;19.77;;;13.27;;
7211;SDS011;3647;48.792;9.802;2022-12-07T07:04:18;22.33;;;13.67;;
7211;SDS011;3647;48.792;9.802;2022-12-07T07:06:45;18.33;;;10.87;;
7211;SDS011;3647;48.792;9.802;2022-12-07T07:09:12;17.23;;;11.40;;
7211;SDS011;3647;48.792;9.802;2022-12-07T07:11:38;16.70;;;11.07;;
7211;SDS011;3647;48.792;9.802;2022-12-07T07:14:05;16.93;;;11.33;;
7211;SDS011;3647;48.792;9.802;2022-12-07T07:16:32;16.83;;;11.97;;
7211;SDS011;3647;48.792;9.802;2022-12-07T07:18:59;23.60;;;11.77;;
7211;SDS011;3647;48.792;9.802;2022-12-07T07:21:27;17.10;;;11.43;;
7211;SDS011;3647;48.792;9.802;2022-12-07T07:23:54;18.53;;;11.60;;
7211;SDS011;3647;48.792;9.802;2022-12-07T07:26:21;21.67;;;13.63;;
7211;SDS011;3647;48.792;9.802;2022-12-07T07:28:48;19.07;;;12.90;;
7211;SDS011;3647;48.792;9.802;2022-12-07T07:31:15;19.00;;;11.60;;
7211;SDS011;3647;48.792;9.802;2022-12-07T07:33:42;23.70;;;13.10;;
7211;SDS011;3647;48.792;9.802;2022-12-07T07:36:09;22.17;;;13.73;;
7211;SDS011;3647;48.792;9.802;2022-12-07T07:38:37;21.33;;;12.97;;
7211;SDS011;3647;48.792;9.802;2022-12-07T07:41:04;20.27;;;11.87;;
7211;SDS011;3647;48.792;9.802;2022-12-07T07:43:31;19.93;;;13.33;;
7211;SDS011;3647;48.792;9.802;2022-12-07T07:46:00;18.77;;;11.60;;
7211;SDS011;3647;48.792;9.802;2022-12-07T07:48:27;18.73;;;12.37;;
7211;SDS011;3647;48.792;9.802;2022-12-07T07:50:54;20.97;;;12.90;;
7211;SDS011;3647;48.792;9.802;2022-12-07T07:53:20;18.80;;;11.87;;
7211;SDS011;3647;48.792;9.802;2022-12-07T07:55:52;19.53;;;12.20;;
7211;SDS011;3647;48.792;9.802;2022-12-07T07:58:19;17.97;;;12.83;;
7211;SDS011;3647;48.792;9.802;2022-12-07T08:00:46;16.60;;;11.20;;
7211;SDS011;3647;48.792;9.802;2022-12-07T08:03:15;18.50;;;10.63;;
7211;SDS011;3647;48.792;9.802;2022-12-07T08:05:42;18.43;;;11.60;;
7211;SDS011;3647;48.792;9.802;2022-12-07T08:08:09;18.13;;;12.17;;
7211;SDS011;3647;48.792;9.802;2022-12-07T08:10:35;18.20;;;11.40;;
7211;SDS011;3647;48.792;9.802;2022-12-07T08:13:04;20.13;;;12.20;;
7211;SDS011;3647;48.792;9.802;2022-12-07T08:15:39;20.63;;;12.87;;
7211;SDS011;3647;48.792;9.802;2022-12-07T08:18:07;15.47;;;11.77;;
7211;SDS011;3647;48.792;9.802;2022-12-07T08:20:35;18.23;;;11.63;;
7211;SDS011;3647;48.792;9.802;2022-12-07T08:23:03;15.57;;;10.43;;
7211;SDS011;3647;48.792;9.802;2022-12-07T08:25:30;18.60;;;11.53;;
7211;SDS011;3647;48.792;9.802;2022-12-07T08:27:58;15.87;;;10.40;;
7211;SDS011;3647;48.792;9.802;2022-12-07T08:30:27;16.90;;;10.37;;
7211;SDS011;3647;48.792;9.802;2022-12-07T08:32:55;18.17;;;10.80;;
7211;SDS011;3647;48.792;9.802;2022-12-07T08:35:22;20.13;;;12.23;;
7211;SDS011;3647;48.792;9.802;2022-12-07T08:37:49;17.83;;;11.13;;
7211;SDS011;3647;48.792;9.802;2022-12-07T08:40:18;15.60;;;10.30;;
7211;SDS011;3647;48.792;9.802;2022-12-07T08:42:50;14.17;;;9.93;;
7211;SDS011;3647;48.792;9.802;2022-12-07T08:45:18;16.13;;;10.50;;
7211;SDS011;3647;48.792;9.802;2022-12-07T08:47:49;15.53;;;9.30;;
7211;SDS011;3647;48.792;9.802;2022-12-07T08:50:18;16.57;;;9.50;;
7211;SDS011;3647;48.792;9.802;2022-12-07T08:52:47;16.07;;;9.77;;
7211;SDS011;3647;48.792;9.802;2022-12-07T08:55:17;11.40;;;8.90;;
7211;SDS011;3647;48.792;9.802;2022-12-07T08:57:44;12.80;;;9.00;;
7211;SDS011;3647;48.792;9.802;2022-12-07T09:00:12;14.17;;;9.07;;
7211;SDS011;3647;48.792;9.802;2022-12-07T09:02:39;13.13;;;9.53;;
7211;SDS011;3647;48.792;9.802;2022-12-07T09:05:08;14.87;;;9.70;;
7211;SDS011;3647;48.792;9.802;2022-12-07T09:07:35;12.30;;;9.07;;
7211;SDS011;3647;48.792;9.802;2022-12-07T09:10:03;13.07;;;9.53;;
7211;SDS011;3647;48.792;9.802;2022-12-07T09:12:30;14.23;;;9.87;;
7211;SDS011;3647;48.792;9.802;2022-12-07T09:14:57;12.97;;;9.67;;
7211;SDS011;3647;48.792;9.802;2022-12-07T09:17:25;15.27;;;9.77;;
7211;SDS011;3647;48.792;9.802;2022-12-07T09:19:52;14.33;;;10.10;;
7211;SDS011;3647;48.792;9.802;2022-12-07T09:22:20;16.30;;;9.63;;
7211;SDS011;3647;48.792;9.802;2022-12-07T09:24:47;17.63;;;10.30;;
7211;SDS011;3647;48.792;9.802;2022-12-07T09:27:13;13.90;;;9.37;;
7211;SDS011;3647;48.792;9.802;2022-12-07T09:29:42;13.87;;;9.63;;
7211;SDS011;3647;48.792;9.802;2022-12-07T09:32:09;16.60;;;10.30;;
7211;SDS011;3647;48.792;9.802;2022-12-07T09:34:36;15.13;;;9.60;;
7211;SDS011;3647;48.792;9.802;2022-12-07T09:37:03;17.53;;;10.57;;
7211;SDS011;3647;48.792;9.802;2022-12-07T09:39:31;16.10;;;10.83;;
7211;SDS011;3647;48.792;9.802;2022-12-07T09:41:58;15.20;;;11.00;;
7211;SDS011;3647;48.792;9.802;2022-12-07T09:44:28;15.17;;;9.77;;
7211;SDS011;3647;48.792;9.802;2022-12-07T09:46:55;13.97;;;9.53;;
7211;SDS011;3647;48.792;9.802;2022-12-07T09:49:23;14.63;;;9.53;;
7211;SDS011;3647;48.792;9.802;2022-12-07T09:51:59;12.80;;;9.17;;
7211;SDS011;3647;48.792;9.802;2022-12-07T09:54:27;13.50;;;9.40;;
7211;SDS011;3647;48.792;9.802;2022-12-07T09:56:57;13.33;;;9.27;;
7211;SDS011;3647;48.792;9.802;2022-12-07T09:59:25;15.50;;;8.77;;
7211;SDS011;3647;48.792;9.802;2022-12-07T10:01:52;10.73;;;8.53;;
7211;SDS011;3647;48.792;9.802;2022-12-07T10:04:19;13.90;;;8.90;;
7211;SDS011;3647;48.792;9.802;2022-12-07T10:06:48;11.60;;;8.13;;
7211;SDS011;3647;48.792;9.802;2022-12-07T10:09:16;12.73;;;8.97;;
7211;SDS011;3647;48.792;9.802;2022-12-07T10:11:59;10.20;;;8.23;;
7211;SDS011;3647;48.792;9.802;2022-12-07T10:14:27;10.57;;;8.27;;
7211;SDS011;3647;48.792;9.802;2022-12-07T10:16:54;12.03;;;8.77;;
7211;SDS011;3647;48.792;9.802;2022-12-07T10:19:23;14.67;;;9.03;;
7211;SDS011;3647;48.792;9.802;2022-12-07T10:22:02;12.63;;;9.13;;
7211;SDS011;3647;48.792;9.802;2022-12-07T10:24:31;11.87;;;8.63;;
7211;SDS011;3647;48.792;9.802;2022-12-07T10:26:59;11.37;;;8.40;;
7211;SDS011;3647;48.792;9.802;2022-12-07T10:29:28;10.83;;;8.43;;
7211;SDS011;3647;48.792;9.802;2022-12-07T10:31:56;12.80;;;8.50;;
7211;SDS011;3647;48.792;9.802;2022-12-07T10:34:25;11.03;;;8.80;;
7211;SDS011;3647;48.792;9.802;2022-12-07T10:37:07;12.73;;;8.80;;
7211;SDS011;3647;48.792;9.802;2022-12-07T10:39:41;12.27;;;8.33;;
7211;SDS011;3647;48.792;9.802;2022-12-07T10:42:16;12.43;;;8.80;;
7211;SDS011;3647;48.792;9.802;2022-12-07T10:44:45;10.13;;;8.00;;
7211;SDS011;3647;48.792;9.802;2022-12-07T10:47:15;11.13;;;8.80;;
7211;SDS011;3647;48.792;9.802;2022-12-07T10:52:56;9.70;;;7.17;;
7211;SDS011;3647;48.792;9.802;2022-12-07T10:55:33;13.10;;;8.13;;
7211;SDS011;3647;48.792;9.802;2022-12-07T10:58:18;12.27;;;8.03;;
7211;SDS011;3647;48.792;9.802;2022-12-07T11:00:58;11.73;;;7.33;;
7211;SDS011;3647;48.792;9.802;2022-12-07T11:03:37;10.20;;;7.20;;
7211;SDS011;3647;48.792;9.802;2022-12-07T11:06:16;9.73;;;7.60;;
7211;SDS011;3647;48.792;9.802;2022-12-07T11:08:57;9.13;;;6.63;;
7211;SDS011;3647;48.792;9.802;2022-12-07T11:11:35;11.97;;;7.73;;
7211;SDS011;3647;48.792;9.802;2022-12-07T11:14:15;11.27;;;7.30;;
7211;SDS011;3647;48.792;9.802;2022-12-07T11:16:52;8.30;;;6.70;;
7211;SDS011;3647;48.792;9.802;2022-12-07T11:19:39;9.23;;;6.17;;
7211;SDS011;3647;48.792;9.802;2022-12-07T11:22:19;8.13;;;6.70;;
7211;SDS011;3647;48.792;9.802;2022-12-07T11:24:55;10.07;;;7.00;;
7211;SDS011;3647;48.792;9.802;2022-12-07T11:27:30;9.83;;;6.67;;
7211;SDS011;3647;48.792;9.802;2022-12-07T11:30:10;10.33;;;7.23;;
7211;SDS011;3647;48.792;9.802;2022-12-07T11:35:35;9.67;;;6.67;;
7211;SDS011;3647;48.792;9.802;2022-12-07T11:38:12;12.27;;;7.37;;
7211;SDS011;3647;48.792;9.802;2022-12-07T11:40:43;12.63;;;6.97;;
7211;SDS011;3647;48.792;9.802;2022-12-07T11:43:17;10.93;;;7.00;;
7211;SDS011;3647;48.792;9.802;2022-12-07T11:45:52;11.53;;;7.70;;
7211;SDS011;3647;48.792;9.802;2022-12-07T11:48:32;12.47;;;7.97;;
7211;SDS011;3647;48.792;9.802;2022-12-07T11:51:06;8.97;;;6.97;;
7211;SDS011;3647;48.792;9.802;2022-12-07T11:53:38;7.67;;;5.97;;
7211;SDS011;3647;48.792;9.802;2022-12-07T11:56:11;9.93;;;6.90;;
7211;SDS011;3647;48.792;9.802;2022-12-07T11:58:45;7.43;;;6.10;;
7211;SDS011;3647;48.792;9.802;2022-12-07T12:04:13;9.70;;;6.77;;
7211;SDS011;3647;48.792;9.802;2022-12-07T12:06:51;7.70;;;6.43;;
7211;SDS011;3647;48.792;9.802;2022-12-07T12:09:19;11.13;;;6.33;;
7211;SDS011;3647;48.792;9.802;2022-12-07T12:11:56;7.83;;;6.40;;
7211;SDS011;3647;48.792;9.802;2022-12-07T12:14:45;10.63;;;7.53;;
7211;SDS011;3647;48.792;9.802;2022-12-07T12:20:23;8.60;;;6.23;;
7211;SDS011;3647;48.792;9.802;2022-12-07T12:22:55;12.57;;;8.17;;
7211;SDS011;3647;48.792;9.802;2022-12-07T12:25:27;12.40;;;8.10;;
7211;SDS011;3647;48.792;9.802;2022-12-07T12:27:57;9.77;;;7.33;;
7211;SDS011;3647;48.792;9.802;2022-12-07T12:30:32;11.73;;;7.17;;
7211;SDS011;3647;48.792;9.802;2022-12-07T12:33:03;10.27;;;7.37;;
7211;SDS011;3647;48.792;9.802;2022-12-07T12:35:33;10.97;;;7.53;;
7211;SDS011;3647;48.792;9.802;2022-12-07T12:38:23;10.17;;;7.60;;
7211;SDS011;3647;48.792;9.802;2022-12-07T12:40:54;9.83;;;6.83;;
7211;SDS011;3647;48.792;9.802;2022-12-07T12:43:40;9.53;;;6.60;;
7211;SDS011;3647;48.792;9.802;2022-12-07T12:46:37;9.27;;;7.10;;
7211;SDS011;3647;48.792;9.802;2022-12-07T12:55:58;10.00;;;6.67;;
7211;SDS011;3647;48.792;9.802;2022-12-07T13:01:48;13.70;;;8.43;;
7211;SDS011;3647;48.792;9.802;2022-12-07T13:04:18;11.13;;;6.40;;
7211;SDS011;3647;48.792;9.802;2022-12-07T13:07:12;11.23;;;6.80;;
7211;SDS011;3647;48.792;9.802;2022-12-07T13:09:59;8.87;;;6.87;;
7211;SDS011;3647;48.792;9.802;2022-12-07T13:12:27;10.87;;;7.20;;
7211;SDS011;3647;48.792;9.802;2022-12-07T13:14:57;7.67;;;6.37;;
7211;SDS011;3647;48.792;9.802;2022-12-07T13:20:43;7.73;;;5.97;;
7211;SDS011;3647;48.792;9.802;2022-12-07T13:23:12;9.23;;;7.00;;
7211;SDS011;3647;48.792;9.802;2022-12-07T13:25:43;9.90;;;6.87;;
7211;SDS011;3647;48.792;9.802;2022-12-07T13:28:15;7.90;;;6.53;;
7211;SDS011;3647;48.792;9.802;2022-12-07T13:30:48;8.30;;;6.27;;
7211;SDS011;3647;48.792;9.802;2022-12-07T13:33:35;9.80;;;6.93;;
7211;SDS011;3647;48.792;9.802;2022-12-07T13:36:02;9.07;;;6.90;;
7211;SDS011;3647;48.792;9.802;2022-12-07T13:38:31;7.83;;;6.17;;
7211;SDS011;3647;48.792;9.802;2022-12-07T13:41:04;10.03;;;7.10;;
7211;SDS011;3647;48.792;9.802;2022-12-07T13:43:45;7.93;;;6.10;;
7211;SDS011;3647;48.792;9.802;2022-12-07T13:46:14;9.23;;;6.67;;
7211;SDS011;3647;48.792;9.802;2022-12-07T13:48:44;8.07;;;6.10;;
7211;SDS011;3647;48.792;9.802;2022-12-07T13:51:19;7.63;;;6.27;;
7211;SDS011;3647;48.792;9.802;2022-12-07T13:53:50;8.70;;;6.30;;
7211;SDS011;3647;48.792;9.802;2022-12-07T13:56:20;9.63;;;6.10;;
7211;SDS011;3647;48.792;9.802;2022-12-07T13:58:52;7.83;;;6.20;;
7211;SDS011;3647;48.792;9.802;2022-12-07T14:01:18;8.83;;;6.30;;
7211;SDS011;3647;48.792;9.802;2022-12-07T14:03:46;9.23;;;6.30;;
7211;SDS011;3647;48.792;9.802;2022-12-07T14:06:14;9.37;;;6.37;;
7211;SDS011;3647;48.792;9.802;2022-12-07T14:08:43;10.13;;;6.73;;
7211;SDS011;3647;48.792;9.802;2022-12-07T14:11:14;8.70;;;5.80;;
7211;SDS011;3647;48.792;9.802;2022-12-07T14:13:45;10.13;;;6.60;;
7211;SDS011;3647;48.792;9.802;2022-12-07T14:16:22;7.70;;;6.17;;
7211;SDS011;3647;48.792;9.802;2022-12-07T14:18:52;9.17;;;6.33;;
7211;SDS011;3647;48.792;9.802;2022-12-07T14:21:21;7.20;;;5.93;;
7211;SDS011;3647;48.792;9.802;2022-12-07T14:24:02;8.63;;;5.90;;
7211;SDS011;3647;48.792;9.802;2022-12-07T14:26:37;10.77;;;7.30;;
7211;SDS011;3647;48.792;9.802;2022-12-07T14:29:21;9.73;;;6.53;;
7211;SDS011;3647;48.792;9.802;2022-12-07T14:31:56;9.77;;;6.40;;
7211;SDS011;3647;48.792;9.802;2022-12-07T14:34:24;16.40;;;11.57;;
7211;SDS011;3647;48.792;9.802;2022-12-07T14:36:51;12.20;;;7.60;;
7211;SDS011;3647;48.792;9.802;2022-12-07T14:39:18;10.33;;;6.83;;
7211;SDS011;3647;48.792;9.802;2022-12-07T14:41:47;9.70;;;6.87;;
7211;SDS011;3647;48.792;9.802;2022-12-07T14:44:16;8.63;;;6.97;;
7211;SDS011;3647;48.792;9.802;2022-12-07T14:46:44;10.53;;;6.77;;
7211;SDS011;3647;48.792;9.802;2022-12-07T14:49:11;9.60;;;6.40;;
7211;SDS011;3647;48.792;9.802;2022-12-07T14:51:38;8.87;;;6.53;;
7211;SDS011;3647;48.792;9.802;2022-12-07T14:54:06;8.63;;;7.33;;
7211;SDS011;3647;48.792;9.802;2022-12-07T14:56:40;13.40;;;8.17;;
7211;SDS011;3647;48.792;9.802;2022-12-07T14:59:10;10.87;;;8.07;;
7211;SDS011;3647;48.792;9.802;2022-12-07T15:01:37;11.07;;;7.77;;
7211;SDS011;3647;48.792;9.802;2022-12-07T15:04:04;11.47;;;7.80;;
7211;SDS011;3647;48.792;9.802;2022-12-07T15:06:31;9.40;;;7.27;;
7211;SDS011;3647;48.792;9.802;2022-12-07T15:08:58;12.10;;;8.27;;
7211;SDS011;3647;48.792;9.802;2022-12-07T15:11:24;10.37;;;7.77;;
7211;SDS011;3647;48.792;9.802;2022-12-07T15:13:51;11.53;;;8.63;;
7211;SDS011;3647;48.792;9.802;2022-12-07T15:16:35;12.87;;;8.57;;
7211;SDS011;3647;48.792;9.802;2022-12-07T15:19:04;11.60;;;8.17;;
7211;SDS011;3647;48.792;9.802;2022-12-07T15:21:32;16.53;;;7.80;;
7211;SDS011;3647;48.792;9.802;2022-12-07T15:23:59;15.23;;;9.30;;
7211;SDS011;3647;48.792;9.802;2022-12-07T15:26:26;11.83;;;9.27;;
7211;SDS011;3647;48.792;9.802;2022-12-07T15:28:53;12.20;;;8.43;;
7211;SDS011;3647;48.792;9.802;2022-12-07T15:31:20;11.63;;;8.77;;
7211;SDS011;3647;48.792;9.802;2022-12-07T15:33:48;12.73;;;8.60;;
7211;SDS011;3647;48.792;9.802;2022-12-07T15:36:17;15.43;;;9.10;;
7211;SDS011;3647;48.792;9.802;2022-12-07T15:38:47;13.53;;;9.30;;
7211;SDS011;3647;48.792;9.802;2022-12-07T15:41:14;13.47;;;9.57;;
7211;SDS011;3647;48.792;9.802;2022-12-07T15:43:41;11.70;;;7.93;;
7211;SDS011;3647;48.792;9.802;2022-12-07T15:46:28;10.23;;;7.63;;
7211;SDS011;3647;48.792;9.802;2022-12-07T15:48:58;11.57;;;8.00;;
7211;SDS011;3647;48.792;9.802;2022-12-07T15:51:25;10.97;;;8.63;;
7211;SDS011;3647;48.792;9.802;2022-12-07T15:53:52;14.07;;;9.23;;
7211;SDS011;3647;48.792;9.802;2022-12-07T15:56:19;11.07;;;8.00;;
7211;SDS011;3647;48.792;9.802;2022-12-07T15:58:46;11.10;;;8.07;;
7211;SDS011;3647;48.792;9.802;2022-12-07T16:01:13;14.80;;;8.27;;
7211;SDS011;3647;48.792;9.802;2022-12-07T16:03:41;13.00;;;7.87;;
7211;SDS011;3647;48.792;9.802;2022-12-07T16:06:10;12.77;;;8.57;;
7211;SDS011;3647;48.792;9.802;2022-12-07T16:08:41;12.17;;;8.83;;
7211;SDS011;3647;48.792;9.802;2022-12-07T16:11:08;14.07;;;8.47;;
7211;SDS011;3647;48.792;9.802;2022-12-07T16:13:35;11.77;;;8.37;;
7211;SDS011;3647;48.792;9.802;2022-12-07T16:16:03;12.27;;;9.00;;
7211;SDS011;3647;48.792;9.802;2022-12-07T16:18:30;12.47;;;8.50;;
7211;SDS011;3647;48.792;9.802;2022-12-07T16:20:57;11.40;;;9.33;;
7211;SDS011;3647;48.792;9.802;2022-12-07T16:23:26;12.97;;;8.90;;
7211;SDS011;3647;48.792;9.802;2022-12-07T16:25:53;13.37;;;8.83;;
7211;SDS011;3647;48.792;9.802;2022-12-07T16:28:20;11.67;;;8.80;;
7211;SDS011;3647;48.792;9.802;2022-12-07T16:30:47;19.43;;;11.97;;
7211;SDS011;3647;48.792;9.802;2022-12-07T16:33:13;15.20;;;9.60;;
7211;SDS011;3647;48.792;9.802;2022-12-07T16:35:40;12.17;;;8.63;;
7211;SDS011;3647;48.792;9.802;2022-12-07T16:38:07;13.67;;;8.43;;
7211;SDS011;3647;48.792;9.802;2022-12-07T16:40:35;11.53;;;9.10;;
7211;SDS011;3647;48.792;9.802;2022-12-07T16:43:02;12.10;;;9.23;;
7211;SDS011;3647;48.792;9.802;2022-12-07T16:45:29;13.73;;;9.97;;
7211;SDS011;3647;48.792;9.802;2022-12-07T16:47:56;12.90;;;9.33;;
7211;SDS011;3647;48.792;9.802;2022-12-07T16:50:23;12.87;;;8.40;;
7211;SDS011;3647;48.792;9.802;2022-12-07T16:52:49;13.10;;;8.60;;
7211;SDS011;3647;48.792;9.802;2022-12-07T16:55:16;14.27;;;9.40;;
7211;SDS011;3647;48.792;9.802;2022-12-07T16:57:45;15.43;;;9.20;;
7211;SDS011;3647;48.792;9.802;2022-12-07T17:00:12;14.23;;;10.10;;
7211;SDS011;3647;48.792;9.802;2022-12-07T17:02:39;12.50;;;9.77;;
7211;SDS011;3647;48.792;9.802;2022-12-07T17:05:06;15.47;;;11.17;;
7211;SDS011;3647;48.792;9.802;2022-12-07T17:07:33;14.40;;;10.07;;
7211;SDS011;3647;48.792;9.802;2022-12-07T17:10:00;14.47;;;10.33;;
7211;SDS011;3647;48.792;9.802;2022-12-07T17:12:27;19.73;;;10.20;;
7211;SDS011;3647;48.792;9.802;2022-12-07T17:14:55;14.63;;;9.73;;
7211;SDS011;3647;48.792;9.802;2022-12-07T17:17:39;16.93;;;10.10;;
7211;SDS011;3647;48.792;9.802;2022-12-07T17:20:07;16.33;;;10.33;;
7211;SDS011;3647;48.792;9.802;2022-12-07T17:22:34;14.93;;;10.53;;
7211;SDS011;3647;48.792;9.802;2022-12-07T17:25:01;17.33;;;11.53;;
7211;SDS011;3647;48.792;9.802;2022-12-07T17:27:29;20.33;;;11.67;;
7211;SDS011;3647;48.792;9.802;2022-12-07T17:29:57;16.20;;;10.63;;
7211;SDS011;3647;48.792;9.802;2022-12-07T17:32:24;16.33;;;11.10;;
7211;SDS011;3647;48.792;9.802;2022-12-07T17:34:50;19.03;;;11.30;;
7211;SDS011;3647;48.792;9.802;2022-12-07T17:37:17;16.83;;;11.33;;
7211;SDS011;3647;48.792;9.802;2022-12-07T17:39:44;17.70;;;11.73;;
7211;SDS011;3647;48.792;9.802;2022-12-07T17:42:11;17.13;;;10.47;;
7211;SDS011;3647;48.792;9.802;2022-12-07T17:44:56;21.53;;;12.10;;
7211;SDS011;3647;48.792;9.802;2022-12-07T17:47:23;18.57;;;11.73;;
7211;SDS011;3647;48.792;9.802;2022-12-07T17:49:50;17.77;;;11.90;;
7211;SDS011;3647;48.792;9.802;2022-12-07T17:52:17;16.10;;;9.87;;
7211;SDS011;3647;48.792;9.802;2022-12-07T17:55:01;17.03;;;10.83;;
7211;SDS011;3647;48.792;9.802;2022-12-07T17:57:28;14.53;;;9.77;;
7211;SDS011;3647;48.792;9.802;2022-12-07T17:59:56;16.07;;;10.60;;
7211;SDS011;3647;48.792;9.802;2022-12-07T18:02:23;17.63;;;10.53;;
7211;SDS011;3647;48.792;9.802;2022-12-07T18:04:50;15.73;;;10.10;;
7211;SDS011;3647;48.792;9.802;2022-12-07T18:07:17;15.83;;;12.10;;
7211;SDS011;3647;48.792;9.802;2022-12-07T18:09:44;15.73;;;11.27;;
7211;SDS011;3647;48.792;9.802;2022-12-07T18:12:11;22.70;;;11.73;;
7211;SDS011;3647;48.792;9.802;2022-12-07T18:14:38;18.50;;;12.60;;
7211;SDS011;3647;48.792;9.802;2022-12-07T18:17:06;18.10;;;11.63;;
7211;SDS011;3647;48.792;9.802;2022-12-07T18:19:33;19.20;;;12.50;;
7211;SDS011;3647;48.792;9.802;2022-12-07T18:22:01;20.27;;;12.63;;
7211;SDS011;3647;48.792;9.802;2022-12-07T18:24:28;18.37;;;12.03;;
7211;SDS011;3647;48.792;9.802;2022-12-07T18:26:55;19.83;;;12.17;;
7211;SDS011;3647;48.792;9.802;2022-12-07T18:29:21;22.63;;;13.90;;
7211;SDS011;3647;48.792;9.802;2022-12-07T18:31:48;21.30;;;13.17;;
7211;SDS011;3647;48.792;9.802;2022-12-07T18:34:17;22.37;;;13.47;;
7211;SDS011;3647;48.792;9.802;2022-12-07T18:36:45;20.40;;;13.27;;
7211;SDS011;3647;48.792;9.802;2022-12-07T18:39:15;19.37;;;12.97;;
7211;SDS011;3647;48.792;9.802;2022-12-07T18:41:43;17.60;;;12.47;;
7211;SDS011;3647;48.792;9.802;2022-12-07T18:44:10;20.50;;;12.20;;
7211;SDS011;3647;48.792;9.802;2022-12-07T18:46:38;19.57;;;13.03;;
7211;SDS011;3647;48.792;9.802;2022-12-07T18:49:06;19.37;;;11.43;;
7211;SDS011;3647;48.792;9.802;2022-12-07T18:51:35;15.47;;;11.07;;
7211;SDS011;3647;48.792;9.802;2022-12-07T18:54:02;18.67;;;12.37;;
7211;SDS011;3647;48.792;9.802;2022-12-07T18:56:29;20.60;;;12.37;;
7211;SDS011;3647;48.792;9.802;2022-12-07T18:58:57;18.50;;;12.70;;
7211;SDS011;3647;48.792;9.802;2022-12-07T19:01:43;18.50;;;11.40;;
7211;SDS011;3647;48.792;9.802;2022-12-07T19:04:12;17.60;;;11.47;;
7211;SDS011;3647;48.792;9.802;2022-12-07T19:06:41;18.23;;;11.40;;
7211;SDS011;3647;48.792;9.802;2022-12-07T19:09:08;17.73;;;12.10;;
7211;SDS011;3647;48.792;9.802;2022-12-07T19:11:35;20.00;;;12.60;;
7211;SDS011;3647;48.792;9.802;2022-12-07T19:14:15;17.77;;;12.10;;
7211;SDS011;3647;48.792;9.802;2022-12-07T19:16:43;16.30;;;11.67;;
7211;SDS011;3647;48.792;9.802;2022-12-07T19:19:13;20.17;;;12.50;;
7211;SDS011;3647;48.792;9.802;2022-12-07T19:21:42;22.50;;;12.13;;
7211;SDS011;3647;48.792;9.802;2022-12-07T19:24:09;18.90;;;11.43;;
7211;SDS011;3647;48.792;9.802;2022-12-07T19:26:36;19.00;;;12.37;;
7211;SDS011;3647;48.792;9.802;2022-12-07T19:29:02;19.93;;;12.47;;
7211;SDS011;3647;48.792;9.802;2022-12-07T19:31:29;17.83;;;11.50;;
7211;SDS011;3647;48.792;9.802;2022-12-07T19:33:56;15.47;;;11.60;;
7211;SDS011;3647;48.792;9.802;2022-12-07T19:36:23;19.83;;;11.63;;
7211;SDS011;3647;48.792;9.802;2022-12-07T19:38:51;17.70;;;11.40;;
7211;SDS011;3647;48.792;9.802;2022-12-07T19:41:18;18.70;;;11.83;;
7211;SDS011;3647;48.792;9.802;2022-12-07T19:44:00;16.87;;;11.13;;
7211;SDS011;3647;48.792;9.802;2022-12-07T19:46:28;18.57;;;11.37;;
7211;SDS011;3647;48.792;9.802;2022-12-07T19:48:55;17.03;;;11.43;;
7211;SDS011;3647;48.792;9.802;2022-12-07T19:51:24;17.23;;;11.80;;
7211;SDS011;3647;48.792;9.802;2022-12-07T19:53:53;18.20;;;11.33;;
7211;SDS011;3647;48.792;9.802;2022-12-07T19:56:21;19.80;;;12.83;;
7211;SDS011;3647;48.792;9.802;2022-12-07T19:58:48;20.03;;;11.70;;
7211;SDS011;3647;48.792;9.802;2022-12-07T20:01:15;21.77;;;12.87;;
7211;SDS011;3647;48.792;9.802;2022-12-07T20:03:41;19.70;;;12.10;;
7211;SDS011;3647;48.792;9.802;2022-12-07T20:06:09;17.43;;;11.50;;
7211;SDS011;3647;48.792;9.802;2022-12-07T20:08:38;19.13;;;11.50;;
7211;SDS011;3647;48.792;9.802;2022-12-07T20:11:06;20.60;;;13.03;;
7211;SDS011;3647;48.792;9.802;2022-12-07T20:13:47;19.63;;;12.90;;
7211;SDS011;3647;48.792;9.802;2022-12-07T20:16:14;21.07;;;12.77;;
7211;SDS011;3647;48.792;9.802;2022-12-07T20:18:41;24.77;;;13.00;;
7211;SDS011;3647;48.792;9.802;2022-12-07T20:21:08;21.87;;;13.40;;
7211;SDS011;3647;48.792;9.802;2022-12-07T20:23:35;22.77;;;13.80;;
7211;SDS011;3647;48.792;9.802;2022-12-07T20:26:02;21.70;;;12.87;;
7211;SDS011;3647;48.792;9.802;2022-12-07T20:28:32;22.93;;;12.70;;
7211;SDS011;3647;48.792;9.802;2022-12-07T20:30:59;21.13;;;13.53;;
7211;SDS011;3647;48.792;9.802;2022-12-07T20:33:26;20.07;;;12.80;;
7211;SDS011;3647;48.792;9.802;2022-12-07T20:35:57;19.80;;;12.67;;
7211;SDS011;3647;48.792;9.802;2022-12-07T20:38:26;19.63;;;12.77;;
7211;SDS011;3647;48.792;9.802;2022-12-07T20:40:57;24.80;;;13.87;;
7211;SDS011;3647;48.792;9.802;2022-12-07T20:43:25;22.10;;;12.30;;
7211;SDS011;3647;48.792;9.802;2022-12-07T20:45:54;19.47;;;12.27;;
7211;SDS011;3647;48.792;9.802;2022-12-07T20:48:21;18.73;;;11.87;;
7211;SDS011;3647;48.792;9.802;2022-12-07T20:50:48;17.60;;;11.70;;
7211;SDS011;3647;48.792;9.802;2022-12-07T20:53:16;21.27;;;12.93;;
7211;SDS011;3647;48.792;9.802;2022-12-07T20:55:43;22.20;;;13.70;;
7211;SDS011;3647;48.792;9.802;2022-12-07T20:58:10;19.80;;;12.63;;
7211;SDS011;3647;48.792;9.802;2022-12-07T21:00:37;20.20;;;12.67;;
7211;SDS011;3647;48.792;9.802;2022-12-07T21:03:05;24.03;;;14.80;;
7211;SDS011;3647;48.792;9.802;2022-12-07T21:05:32;19.97;;;13.97;;
7211;SDS011;3647;48.792;9.802;2022-12-07T21:08:00;21.73;;;13.40;;
7211;SDS011;3647;48.792;9.802;2022-12-07T21:10:27;21.10;;;13.70;;
7211;SDS011;3647;48.792;9.802;2022-12-07T21:12:54;19.70;;;13.27;;